createdAt,value
2019-03-22T00:00:38.387Z,12.40
2019-03-22T00:03:27.714Z,11.00
2019-03-22T00:06:01.891Z,11.73
2019-03-22T00:08:52.102Z,11.07
2019-03-22T00:11:36.717Z,9.60
2019-03-22T00:14:09.247Z,10.83
2019-03-22T00:16:45.863Z,11.03
2019-03-22T00:19:35.465Z,11.63
2019-03-22T00:22:09.782Z,11.37
2019-03-22T00:24:45.748Z,10.40
2019-03-22T00:27:41.737Z,10.87
2019-03-22T00:30:32.238Z,11.30
2019-03-22T00:33:22.757Z,11.30
2019-03-22T00:36:02.514Z,11.40
2019-03-22T00:38:44.711Z,10.60
2019-03-22T00:41:19.382Z,11.10
2019-03-22T00:44:10.080Z,12.37
2019-03-22T00:46:46.619Z,12.00
2019-03-22T00:49:21.241Z,13.57
2019-03-22T00:51:56.794Z,13.77
2019-03-22T00:54:32.996Z,11.77
2019-03-22T00:57:05.534Z,12.90
2019-03-22T00:59:36.821Z,12.30
2019-03-22T01:02:12.341Z,12.60
2019-03-22T01:04:47.536Z,11.37
2019-03-22T01:07:23.439Z,12.27
2019-03-22T01:10:14.978Z,12.80
2019-03-22T01:12:48.794Z,13.43
2019-03-22T01:15:22.613Z,12.70
2019-03-22T01:18:02.183Z,11.43
2019-03-22T01:20:47.053Z,12.67
2019-03-22T01:23:21.621Z,12.03
2019-03-22T01:25:55.150Z,11.87
2019-03-22T01:28:28.457Z,12.27
2019-03-22T01:31:00.488Z,12.37
2019-03-22T01:33:39.690Z,10.13
2019-03-22T01:36:24.602Z,10.60
2019-03-22T01:39:10.706Z,11.47
2019-03-22T01:42:01.200Z,12.53
2019-03-22T01:44:36.675Z,11.77
2019-03-22T01:47:10.451Z,12.00
2019-03-22T01:49:46.399Z,13.30
2019-03-22T01:52:19.860Z,12.50
2019-03-22T01:55:04.910Z,10.23
2019-03-22T01:57:52.937Z,11.57
2019-03-22T02:00:27.371Z,10.97
2019-03-22T02:03:07.013Z,12.27
2019-03-22T02:05:44.103Z,11.50
2019-03-22T02:08:35.877Z,11.30
2019-03-22T02:11:14.541Z,11.50
2019-03-22T02:13:47.826Z,11.00
2019-03-22T02:16:19.655Z,11.60
2019-03-22T02:18:52.956Z,11.43
2019-03-22T02:21:42.998Z,10.37
2019-03-22T02:24:14.872Z,11.97
2019-03-22T02:26:52.487Z,11.97
2019-03-22T02:29:29.205Z,12.00
2019-03-22T02:32:06.293Z,10.63
2019-03-22T02:34:52.932Z,11.90
2019-03-22T02:37:33.426Z,11.33
2019-03-22T02:40:08.500Z,10.87
2019-03-22T02:42:54.261Z,9.40
2019-03-22T02:45:28.960Z,10.37
2019-03-22T02:48:00.091Z,11.23
2019-03-22T02:50:39.562Z,10.10
2019-03-22T02:53:19.678Z,9.70
2019-03-22T02:55:51.257Z,9.07
2019-03-22T02:58:40.865Z,8.33
2019-03-22T03:01:12.840Z,8.23
2019-03-22T03:03:46.978Z,8.37
2019-03-22T03:06:18.314Z,8.60
2019-03-22T03:08:52.255Z,9.50
2019-03-22T03:11:37.756Z,7.97
2019-03-22T03:14:09.062Z,8.50
2019-03-22T03:16:43.396Z,8.53
2019-03-22T03:19:20.142Z,9.73
2019-03-22T03:21:54.218Z,8.20
2019-03-22T03:24:27.292Z,8.20
2019-03-22T03:27:05.827Z,8.67
2019-03-22T03:29:42.704Z,8.30
2019-03-22T03:32:21.899Z,9.03
2019-03-22T03:35:03.863Z,7.80
2019-03-22T03:37:43.505Z,7.80
2019-03-22T03:40:23.232Z,7.50
2019-03-22T03:42:54.833Z,7.10
2019-03-22T03:45:45.118Z,8.00
2019-03-22T03:48:24.451Z,7.13
2019-03-22T03:51:03.489Z,7.80
2019-03-22T03:53:37.906Z,8.37
2019-03-22T03:56:10.236Z,7.37
2019-03-22T03:58:52.403Z,7.83
2019-03-22T04:01:19.609Z,8.90
2019-03-22T04:03:55.380Z,7.80
2019-03-22T04:06:30.383Z,7.80
2019-03-22T04:09:07.238Z,8.30
2019-03-22T04:11:43.541Z,8.00
2019-03-22T04:14:37.993Z,7.40
2019-03-22T04:17:13.190Z,8.23
2019-03-22T04:19:55.271Z,7.97
2019-03-22T04:22:30.502Z,8.20
2019-03-22T04:25:27.548Z,8.33
2019-03-22T04:28:22.159Z,8.30
2019-03-22T04:31:15.667Z,8.23
2019-03-22T04:33:50.887Z,7.80
2019-03-22T04:36:37.036Z,7.27
2019-03-22T04:39:12.496Z,8.30
2019-03-22T04:41:46.216Z,8.33
2019-03-22T04:44:21.182Z,9.10
2019-03-22T04:46:55.695Z,8.37
2019-03-22T04:49:34.210Z,7.90
2019-03-22T04:52:12.381Z,7.90
2019-03-22T04:54:47.104Z,8.80
2019-03-22T04:57:24.492Z,9.00
2019-03-22T05:00:14.932Z,9.37
2019-03-22T05:02:47.930Z,7.73
2019-03-22T05:05:25.450Z,8.83
2019-03-22T05:08:04.805Z,8.53
2019-03-22T05:10:39.663Z,8.57
2019-03-22T05:13:29.910Z,8.63
2019-03-22T05:16:25.903Z,8.50
2019-03-22T05:19:09.177Z,8.83
2019-03-22T05:21:44.535Z,8.47
2019-03-22T05:24:32.155Z,9.40
2019-03-22T05:27:06.788Z,8.77
2019-03-22T05:29:42.843Z,8.97
2019-03-22T05:32:20.339Z,8.83
2019-03-22T05:34:58.402Z,9.37
2019-03-22T05:37:39.160Z,8.90
2019-03-22T05:40:13.331Z,8.97
2019-03-22T05:42:49.375Z,8.97
2019-03-22T05:45:26.105Z,9.30
2019-03-22T05:48:08.261Z,8.97
2019-03-22T05:50:43.935Z,7.90
2019-03-22T05:53:22.037Z,9.20
2019-03-22T05:55:55.952Z,10.13
2019-03-22T05:58:33.857Z,10.20
2019-03-22T06:01:07.980Z,9.63
2019-03-22T06:03:42.934Z,9.63
2019-03-22T06:06:26.966Z,9.90
2019-03-22T06:08:59.851Z,9.70
2019-03-22T06:11:37.688Z,10.33
2019-03-22T06:14:09.837Z,9.87
2019-03-22T06:16:43.779Z,10.70
2019-03-22T06:19:16.249Z,10.70
2019-03-22T06:21:48.232Z,10.00
2019-03-22T06:24:22.350Z,10.00
2019-03-22T06:26:55.296Z,10.63
2019-03-22T06:29:36.840Z,10.37
2019-03-22T06:32:09.561Z,11.27
2019-03-22T06:34:43.303Z,11.10
2019-03-22T06:37:20.419Z,11.70
2019-03-22T06:40:10.510Z,12.47
2019-03-22T06:43:00.421Z,11.67
2019-03-22T06:45:52.001Z,12.43
2019-03-22T06:48:25.669Z,12.37
2019-03-22T06:51:19.790Z,12.17
2019-03-22T06:54:07.751Z,12.77
2019-03-22T06:56:50.090Z,12.70
2019-03-22T06:59:23.584Z,13.33
2019-03-22T07:01:58.940Z,12.70
2019-03-22T07:04:48.788Z,13.50
2019-03-22T07:07:46.273Z,13.80
2019-03-22T07:10:37.912Z,14.70
2019-03-22T07:13:09.277Z,15.37
2019-03-22T07:15:46.023Z,14.80
2019-03-22T07:18:32.622Z,14.50
2019-03-22T07:21:04.102Z,13.70
2019-03-22T07:23:37.553Z,15.30
2019-03-22T07:26:09.738Z,14.83
2019-03-22T07:28:43.247Z,16.23
2019-03-22T07:31:21.244Z,15.63
2019-03-22T07:33:59.918Z,15.07
2019-03-22T07:36:32.744Z,15.60
2019-03-22T07:39:11.151Z,17.03
2019-03-22T07:41:43.880Z,17.57
2019-03-22T07:44:34.175Z,17.70
2019-03-22T07:47:24.505Z,17.37
2019-03-22T07:50:13.641Z,16.03
2019-03-22T07:52:50.851Z,16.67
2019-03-22T07:55:41.445Z,16.50
2019-03-22T07:58:15.261Z,17.50
2019-03-22T08:00:48.998Z,15.73
2019-03-22T08:03:39.519Z,17.07
2019-03-22T08:06:32.260Z,17.50
2019-03-22T08:09:13.898Z,19.57
2019-03-22T08:11:47.362Z,18.30
2019-03-22T08:14:26.362Z,20.80
2019-03-22T08:17:00.620Z,20.00
2019-03-22T08:19:43.285Z,18.90
2019-03-22T08:22:28.662Z,18.47
2019-03-22T08:25:13.874Z,18.03
2019-03-22T08:28:05.736Z,17.80
2019-03-22T08:30:43.156Z,18.00
2019-03-22T08:33:20.446Z,17.03
2019-03-22T08:35:59.669Z,16.77
2019-03-22T08:38:35.502Z,19.00
2019-03-22T08:41:45.686Z,23.10
2019-03-22T08:44:18.871Z,18.20
2019-03-22T08:46:53.906Z,16.80
2019-03-22T08:49:34.698Z,19.00
2019-03-22T08:52:11.127Z,17.87
2019-03-22T08:54:48.807Z,18.30
2019-03-22T08:57:25.337Z,25.30
2019-03-22T09:00:02.885Z,20.70
2019-03-22T09:02:51.757Z,22.17
2019-03-22T09:05:42.587Z,18.43
2019-03-22T09:08:32.393Z,19.40
2019-03-22T09:11:05.583Z,18.27
2019-03-22T09:13:37.998Z,19.10
2019-03-22T09:16:21.179Z,17.90
2019-03-22T09:18:56.209Z,19.17
2019-03-22T09:21:30.604Z,18.70
2019-03-22T09:24:06.472Z,18.73
2019-03-22T09:26:47.824Z,18.77
2019-03-22T09:29:18.878Z,19.00
2019-03-22T09:31:53.802Z,17.83
2019-03-22T09:34:33.956Z,18.10
2019-03-22T09:37:09.386Z,17.40
2019-03-22T09:39:43.074Z,18.37
2019-03-22T09:42:32.973Z,18.37
2019-03-22T09:45:04.763Z,21.63
2019-03-22T09:47:39.266Z,19.67
2019-03-22T09:50:29.904Z,18.20
2019-03-22T09:53:01.428Z,18.40
2019-03-22T09:55:38.479Z,18.93
2019-03-22T09:58:19.944Z,17.90
2019-03-22T10:00:53.944Z,18.83
2019-03-22T10:03:27.104Z,20.13
2019-03-22T10:06:03.478Z,19.60
2019-03-22T10:08:35.224Z,20.10
2019-03-22T10:11:10.839Z,21.50
2019-03-22T10:14:00.398Z,20.80
2019-03-22T10:16:53.940Z,22.67
2019-03-22T10:19:27.968Z,24.67
2019-03-22T10:22:00.540Z,21.37
2019-03-22T10:24:35.719Z,21.63
2019-03-22T10:27:07.115Z,23.33
2019-03-22T10:29:41.962Z,23.20
2019-03-22T10:32:13.091Z,23.43
2019-03-22T10:34:46.132Z,21.57
2019-03-22T10:37:23.919Z,22.10
2019-03-22T10:40:02.529Z,22.67
2019-03-22T10:42:40.180Z,22.67
2019-03-22T10:45:14.247Z,20.53
2019-03-22T10:47:51.281Z,21.03
2019-03-22T10:50:42.936Z,19.90
2019-03-22T10:53:19.162Z,21.63
2019-03-22T10:55:55.862Z,19.17
2019-03-22T10:58:46.705Z,19.63
2019-03-22T11:01:48.615Z,26.57
2019-03-22T11:04:23.858Z,21.07
2019-03-22T11:07:08.776Z,22.77
2019-03-22T11:10:11.809Z,21.60
2019-03-22T11:12:52.923Z,22.83
2019-03-22T11:15:28.871Z,22.40
2019-03-22T11:18:19.320Z,22.83
2019-03-22T11:21:05.342Z,22.20
2019-03-22T11:23:40.802Z,31.97
2019-03-22T11:26:20.856Z,26.23
2019-03-22T11:28:58.479Z,22.50
2019-03-22T11:31:40.062Z,19.67
2019-03-22T11:34:12.492Z,20.40
2019-03-22T11:36:56.907Z,21.10
2019-03-22T11:39:36.301Z,22.27
2019-03-22T11:42:07.528Z,24.43
2019-03-22T11:44:43.598Z,21.70
2019-03-22T11:47:28.050Z,19.90
2019-03-22T11:50:01.968Z,20.77
2019-03-22T11:52:39.099Z,19.90
2019-03-22T11:55:14.769Z,20.30
2019-03-22T11:58:07.355Z,18.70
2019-03-22T12:01:01.430Z,18.43
2019-03-22T12:03:37.748Z,18.03
2019-03-22T12:06:31.906Z,16.90
2019-03-22T12:09:14.231Z,16.67
2019-03-22T12:11:50.286Z,16.60
2019-03-22T12:14:41.458Z,15.30
2019-03-22T12:17:29.798Z,16.40
2019-03-22T12:20:06.984Z,17.10
2019-03-22T12:22:49.309Z,15.20
2019-03-22T12:25:23.297Z,15.80
2019-03-22T12:28:03.335Z,15.60
2019-03-22T12:30:40.743Z,15.80
2019-03-22T12:33:29.693Z,15.87
2019-03-22T12:36:04.787Z,16.17
2019-03-22T12:38:46.474Z,16.67
2019-03-22T12:41:21.470Z,14.77
2019-03-22T12:44:12.929Z,15.13
2019-03-22T12:46:44.537Z,16.57
2019-03-22T12:49:15.964Z,13.13
2019-03-22T12:51:49.783Z,14.30
2019-03-22T12:54:23.543Z,16.00
2019-03-22T12:56:58.341Z,15.10
2019-03-22T12:59:31.580Z,14.73
2019-03-22T13:02:03.670Z,14.23
2019-03-22T13:04:41.158Z,13.13
2019-03-22T13:07:14.530Z,15.03
2019-03-22T13:09:52.806Z,15.07
2019-03-22T13:12:32.766Z,13.43
2019-03-22T13:15:05.908Z,12.80
2019-03-22T13:17:41.595Z,15.47
2019-03-22T13:20:14.894Z,15.20
2019-03-22T13:22:47.550Z,16.23
2019-03-22T13:25:22.043Z,14.83
2019-03-22T13:27:57.635Z,16.80
2019-03-22T13:30:42.124Z,16.70
2019-03-22T13:33:31.877Z,14.80
2019-03-22T13:36:21.707Z,13.50
2019-03-22T13:39:07.642Z,13.90
2019-03-22T13:41:41.923Z,14.63
2019-03-22T13:44:14.782Z,15.00
2019-03-22T13:46:49.971Z,13.73
2019-03-22T13:49:43.250Z,12.70
2019-03-22T13:52:19.980Z,14.57
2019-03-22T13:54:55.071Z,15.57
2019-03-22T13:57:32.934Z,13.80
2019-03-22T14:00:11.848Z,14.23
2019-03-22T14:02:43.508Z,13.77
2019-03-22T14:05:22.694Z,13.03
2019-03-22T14:08:13.812Z,13.30
2019-03-22T14:10:47.466Z,13.70
2019-03-22T14:13:40.191Z,11.63
2019-03-22T14:16:13.574Z,18.07
2019-03-22T14:19:05.190Z,15.33
2019-03-22T14:21:52.567Z,14.50
2019-03-22T14:24:37.350Z,15.93
2019-03-22T14:27:30.820Z,12.90
2019-03-22T14:30:06.087Z,14.10
2019-03-22T14:32:44.387Z,14.00
2019-03-22T14:35:28.501Z,14.27
2019-03-22T14:38:02.122Z,13.53
2019-03-22T14:40:53.067Z,14.70
2019-03-22T14:43:26.045Z,13.87
2019-03-22T14:46:10.773Z,14.87
2019-03-22T14:48:45.075Z,13.93
2019-03-22T14:51:36.578Z,15.00
2019-03-22T14:54:27.925Z,13.97
2019-03-22T14:57:06.979Z,13.80
2019-03-22T14:59:59.413Z,14.40
2019-03-22T15:02:54.083Z,13.67
2019-03-22T15:05:28.346Z,13.97
2019-03-22T15:08:04.928Z,13.87
2019-03-22T15:10:39.189Z,15.43
2019-03-22T15:13:12.014Z,15.60
2019-03-22T15:15:57.674Z,18.50
2019-03-22T15:18:51.821Z,20.17
2019-03-22T15:21:46.545Z,15.40
2019-03-22T15:24:49.233Z,16.37
2019-03-22T15:27:50.418Z,14.53
2019-03-22T15:30:40.873Z,12.10
2019-03-22T15:33:39.602Z,12.33
2019-03-22T15:36:47.791Z,11.90
2019-03-22T15:39:48.249Z,11.20
2019-03-22T15:42:22.399Z,13.00
2019-03-22T15:48:03.735Z,11.17
2019-03-22T15:50:56.291Z,11.90
2019-03-22T15:53:28.731Z,10.83
2019-03-22T15:56:00.732Z,11.57
2019-03-22T15:58:38.079Z,11.23
2019-03-22T16:01:12.494Z,10.13
2019-03-22T16:03:47.485Z,11.63
2019-03-22T16:06:20.501Z,10.93
2019-03-22T16:08:51.861Z,10.90
2019-03-22T16:11:34.696Z,12.30
2019-03-22T16:14:07.655Z,13.00
2019-03-22T16:16:56.965Z,13.83
2019-03-22T16:19:47.354Z,14.10
2019-03-22T16:22:36.946Z,14.27
2019-03-22T16:25:16.093Z,12.90
2019-03-22T16:27:49.800Z,11.90
2019-03-22T16:30:24.521Z,11.97
2019-03-22T16:32:56.509Z,13.17
2019-03-22T16:35:27.554Z,11.83
2019-03-22T16:38:00.604Z,12.30
2019-03-22T16:40:31.914Z,12.57
2019-03-22T16:43:09.850Z,12.20
2019-03-22T16:45:44.334Z,11.20
2019-03-22T16:48:34.579Z,12.10
2019-03-22T16:51:07.931Z,12.87
2019-03-22T16:53:39.964Z,12.67
2019-03-22T16:56:29.898Z,10.13
2019-03-22T16:59:05.638Z,10.63
2019-03-22T17:01:36.691Z,11.60
2019-03-22T17:04:10.573Z,10.50
2019-03-22T17:06:43.932Z,11.43
2019-03-22T17:09:33.899Z,9.93
2019-03-22T17:12:07.536Z,9.93
2019-03-22T17:14:39.105Z,10.27
2019-03-22T17:17:24.837Z,11.43
2019-03-22T17:19:58.220Z,11.33
2019-03-22T17:22:33.350Z,10.77
2019-03-22T17:25:05.086Z,10.20
2019-03-22T17:27:37.469Z,11.40
2019-03-22T17:30:14.812Z,11.70
2019-03-22T17:32:47.539Z,10.23
2019-03-22T17:35:38.567Z,11.97
2019-03-22T17:38:10.303Z,11.60
2019-03-22T17:40:44.306Z,11.53
2019-03-22T17:43:16.219Z,10.80
2019-03-22T17:45:51.030Z,11.93
2019-03-22T17:48:22.030Z,10.60
2019-03-22T17:50:56.164Z,11.60
2019-03-22T17:53:30.221Z,11.37
2019-03-22T17:56:05.935Z,10.70
2019-03-22T17:58:38.877Z,11.40
2019-03-22T18:01:28.646Z,12.17
2019-03-22T18:04:24.188Z,13.50
2019-03-22T18:07:04.998Z,13.67
2019-03-22T18:09:37.716Z,14.33
2019-03-22T18:12:11.912Z,14.03
2019-03-22T18:14:43.667Z,13.13
2019-03-22T18:17:17.093Z,14.03
2019-03-22T18:19:50.065Z,14.00
2019-03-22T18:22:25.089Z,27.67
2019-03-22T18:24:58.150Z,27.57
2019-03-22T18:27:30.505Z,29.93
2019-03-22T18:30:05.284Z,27.20
2019-03-22T18:32:55.155Z,26.90
2019-03-22T18:35:45.277Z,36.40
2019-03-22T18:38:18.557Z,80.50
2019-03-22T18:40:52.309Z,52.17
2019-03-22T18:43:25.502Z,57.07
2019-03-22T18:45:58.609Z,78.10
2019-03-22T18:48:33.497Z,56.90
2019-03-22T18:51:04.631Z,49.73
2019-03-22T18:53:38.309Z,48.93
2019-03-22T18:56:28.385Z,42.53
2019-03-22T18:59:00.435Z,35.13
2019-03-22T19:01:33.542Z,29.33
2019-03-22T19:04:04.476Z,26.73
2019-03-22T19:06:35.561Z,25.17
2019-03-22T19:09:09.207Z,24.40
2019-03-22T19:11:40.382Z,24.60
2019-03-22T19:14:13.393Z,22.87
2019-03-22T19:16:47.577Z,20.63
2019-03-22T19:19:21.735Z,21.27
2019-03-22T19:22:11.301Z,20.33
2019-03-22T19:24:43.522Z,21.10
2019-03-22T19:27:19.265Z,22.23
2019-03-22T19:29:55.016Z,26.30
2019-03-22T19:32:34.007Z,29.03
2019-03-22T19:35:07.967Z,29.50
2019-03-22T19:37:40.739Z,27.83
2019-03-22T19:40:15.234Z,28.80
2019-03-22T19:42:46.552Z,28.23
2019-03-22T19:45:20.606Z,27.80
2019-03-22T19:47:54.655Z,30.50
2019-03-22T19:50:28.736Z,26.03
2019-03-22T19:53:08.570Z,25.23
2019-03-22T19:55:41.303Z,24.00
2019-03-22T19:58:13.985Z,28.20
2019-03-22T20:00:47.703Z,21.83
2019-03-22T20:03:21.799Z,19.60
2019-03-22T20:05:55.779Z,21.43
2019-03-22T20:08:29.832Z,19.70
2019-03-22T20:11:03.430Z,17.57
2019-03-22T20:13:53.236Z,18.23
2019-03-22T20:16:26.997Z,18.80
2019-03-22T20:18:58.699Z,20.10
2019-03-22T20:21:30.205Z,17.60
2019-03-22T20:24:05.254Z,17.03
2019-03-22T20:26:40.139Z,15.90
2019-03-22T20:29:13.938Z,19.77
2019-03-22T20:31:46.913Z,17.17
2019-03-22T20:34:19.855Z,17.27
2019-03-22T20:36:53.126Z,17.10
2019-03-22T20:39:33.974Z,17.27
2019-03-22T20:42:10.083Z,18.70
2019-03-22T20:45:04.577Z,19.63
2019-03-22T20:47:38.889Z,18.40
2019-03-22T20:50:15.487Z,17.60
2019-03-22T20:52:49.771Z,17.50
2019-03-22T20:55:23.856Z,17.27
2019-03-22T20:57:56.912Z,17.53
2019-03-22T21:00:46.597Z,17.60
2019-03-22T21:03:21.554Z,17.80
2019-03-22T21:05:54.197Z,19.27
2019-03-22T21:08:26.931Z,17.97
2019-03-22T21:11:16.451Z,16.73
2019-03-22T21:13:52.188Z,19.27
2019-03-22T21:16:26.281Z,17.53
2019-03-22T21:18:57.698Z,16.70
2019-03-22T21:21:36.185Z,17.20
2019-03-22T21:24:05.890Z,18.40
2019-03-22T21:26:39.388Z,18.37
2019-03-22T21:29:28.875Z,18.40
2019-03-22T21:32:02.381Z,17.70
2019-03-22T21:34:36.384Z,16.60
2019-03-22T21:37:10.224Z,17.47
2019-03-22T21:39:47.217Z,17.57
2019-03-22T21:42:19.346Z,16.77
2019-03-22T21:44:53.871Z,17.30
2019-03-22T21:47:25.490Z,16.50
2019-03-22T21:50:03.211Z,16.20
2019-03-22T21:52:35.589Z,16.90
2019-03-22T21:55:09.064Z,17.63
2019-03-22T21:57:40.227Z,18.23
2019-03-22T22:00:18.242Z,17.80
2019-03-22T22:03:09.965Z,18.40
2019-03-22T22:05:47.878Z,19.53
2019-03-22T22:08:17.171Z,19.20
2019-03-22T22:10:59.320Z,18.93
2019-03-22T22:13:24.168Z,18.10
2019-03-22T22:15:59.314Z,18.77
2019-03-22T22:18:32.120Z,19.60
2019-03-22T22:21:04.418Z,19.03
2019-03-22T22:23:38.409Z,18.13
2019-03-22T22:26:11.258Z,28.77
2019-03-22T22:28:42.527Z,54.93
2019-03-22T22:31:16.648Z,33.80
2019-03-22T22:33:49.096Z,33.73
2019-03-22T22:36:21.979Z,22.10
2019-03-22T22:38:54.711Z,20.47
2019-03-22T22:41:40.348Z,20.20
2019-03-22T22:44:11.610Z,20.03
2019-03-22T22:46:44.331Z,19.67
2019-03-22T22:49:17.579Z,20.23
2019-03-22T22:51:50.827Z,17.40
2019-03-22T22:54:25.209Z,19.07
2019-03-22T22:56:57.565Z,20.07
2019-03-22T22:59:47.390Z,21.77
2019-03-22T23:02:19.800Z,20.63
2019-03-22T23:04:52.971Z,21.70
2019-03-22T23:07:26.849Z,20.07
2019-03-22T23:09:59.451Z,21.00
2019-03-22T23:12:32.823Z,23.00
2019-03-22T23:15:04.488Z,22.80
2019-03-22T23:17:38.387Z,23.83
2019-03-22T23:20:10.725Z,25.43
2019-03-22T23:22:44.584Z,26.13
2019-03-22T23:25:17.490Z,25.50
2019-03-22T23:27:50.916Z,26.23
2019-03-22T23:30:37.746Z,26.50
2019-03-22T23:33:11.879Z,26.33
2019-03-22T23:35:43.762Z,28.13
2019-03-22T23:38:17.701Z,27.90
2019-03-22T23:40:57.586Z,26.97
2019-03-22T23:43:29.571Z,27.00
2019-03-22T23:46:01.742Z,27.13
2019-03-22T23:48:50.992Z,28.57
2019-03-22T23:51:22.669Z,26.50
2019-03-22T23:53:56.964Z,32.23
2019-03-22T23:56:29.687Z,32.13
2019-03-22T23:59:02.612Z,30.80
